Time;durP1;ratioP1;P1;durP2;ratioP2;P2;SDS_P1;SDS_P2;PMS_P1;PMS_P2;Temp;Humidity;BMP_temperature;BMP_pressure;BME280_temperature;BME280_humidity;BME280_pressure;Samples;Min_cycle;Max_cycle;Signal;HPM_P1;HPM_P2
2023/08/07 00:01:28;;;;;;;;;2.00;2.00;;;;;22.55;51.81;99126.34;110269;1265;19222;-39
2023/08/07 00:03:54;;;;;;;;;2.00;2.00;;;;;22.53;51.77;99133.36;110255;1260;19356;-39
2023/08/07 00:06:20;;;;;;;;;2.00;2.00;;;;;22.48;52.00;99131.88;110256;1265;18362;-40
2023/08/07 00:08:46;;;;;;;;;;;;;;;22.48;51.89;99124.09;110295;1251;20613;-40
2023/08/07 00:11:11;;;;;;;;;2.00;2.00;;;;;22.49;51.50;99127.88;110297;1251;19327;-40
2023/08/07 00:13:37;;;;;;;;;2.00;2.00;;;;;22.47;51.61;99129.96;110275;1250;19674;-40
2023/08/07 00:16:03;;;;;;;;;2.00;2.00;;;;;22.46;51.63;99127.71;110271;1251;20451;-40
2023/08/07 00:18:29;;;;;;;;;4.50;4.00;;;;;22.48;51.77;99127.81;110270;1250;20359;-40
2023/08/07 00:20:55;;;;;;;;;4.00;4.00;;;;;22.48;51.29;99125.17;110306;1251;19754;-40
2023/08/07 00:23:21;;;;;;;;;4.00;2.00;;;;;22.46;51.49;99124.48;110275;1265;19144;-40
2023/08/07 00:25:47;;;;;;;;;4.00;4.00;;;;;22.45;51.55;99121.97;110299;1249;19438;-40
2023/08/07 00:28:13;;;;;;;;;4.00;4.00;;;;;22.46;51.50;99120.62;110269;1265;18898;-41
2023/08/07 00:30:39;;;;;;;;;2.00;2.00;;;;;22.45;51.62;99120.68;110274;1249;20473;-41
2023/08/07 00:33:05;;;;;;;;;4.00;4.00;;;;;22.45;51.49;99118.73;110278;1251;19384;-40
2023/08/07 00:35:31;;;;;;;;;3.00;3.00;;;;;22.48;51.39;99123.23;110302;1249;19776;-40
2023/08/07 00:37:57;;;;;;;;;4.00;4.00;;;;;22.47;51.31;99122.16;110257;1251;19212;-40
2023/08/07 00:40:23;;;;;;;;;2.00;2.00;;;;;22.44;51.23;99119.63;110304;1251;19515;-39
2023/08/07 00:42:48;;;;;;;;;2.00;2.00;;;;;22.44;51.51;99113.59;110326;1251;19824;-40
2023/08/07 00:45:14;;;;;;;;;4.00;4.00;;;;;22.43;51.30;99112.53;110290;1265;19099;-40
2023/08/07 00:47:40;;;;;;;;;4.00;4.00;;;;;22.40;51.35;99110.98;110289;1251;19441;-40
2023/08/07 00:50:06;;;;;;;;;4.00;4.00;;;;;22.39;51.33;99114.02;110320;1265;18422;-40
2023/08/07 00:52:32;;;;;;;;;2.00;2.00;;;;;22.40;51.33;99115.30;110230;1265;19130;-40
2023/08/07 00:54:58;;;;;;;;;5.00;5.00;;;;;22.39;51.15;99114.87;110338;1251;19745;-40
2023/08/07 00:57:24;;;;;;;;;4.00;4.00;;;;;22.39;51.12;99108.29;110388;1265;20436;-40
2023/08/07 00:59:50;;;;;;;;;4.67;4.67;;;;;22.38;51.24;99106.94;110268;1250;22736;-41
2023/08/07 01:02:16;;;;;;;;;4.00;4.00;;;;;22.38;50.91;99110.61;110256;1265;18198;-40
2023/08/07 01:04:42;;;;;;;;;4.00;4.00;;;;;22.38;50.92;99119.16;110277;1251;22365;-40
2023/08/07 01:07:08;;;;;;;;;4.00;4.00;;;;;22.38;51.05;99121.36;110319;1265;22768;-40
2023/08/07 01:09:34;;;;;;;;;4.00;4.00;;;;;22.37;50.98;99121.84;110253;1265;22312;-40
2023/08/07 01:12:00;;;;;;;;;5.00;4.00;;;;;22.36;51.05;99124.08;110323;1265;19548;-40
2023/08/07 01:14:26;;;;;;;;;4.00;4.00;;;;;22.36;50.87;99118.30;110348;1251;20964;-40
2023/08/07 01:16:52;;;;;;;;;4.00;4.00;;;;;22.36;50.90;99112.44;110321;1265;22383;-40
2023/08/07 01:19:18;;;;;;;;;5.00;4.00;;;;;22.34;50.96;99110.12;110276;1265;18551;-40
2023/08/07 01:21:44;;;;;;;;;2.00;2.00;;;;;22.37;50.81;99112.11;110199;1249;20436;-40
2023/08/07 01:24:10;;;;;;;;;8.00;5.00;;;;;22.38;50.91;99110.28;110259;1265;20003;-40
2023/08/07 01:26:36;;;;;;;;;4.00;4.00;;;;;22.34;50.79;99112.30;110250;1250;22309;-39
2023/08/07 01:29:02;;;;;;;;;4.50;4.00;;;;;22.33;50.65;99108.58;110272;1265;20483;-42
2023/08/07 01:31:28;;;;;;;;;4.00;4.00;;;;;22.36;50.63;99108.64;110312;1265;18174;-41
2023/08/07 01:33:54;;;;;;;;;4.00;4.00;;;;;22.37;50.58;99104.92;110272;1251;19742;-40
2023/08/07 01:36:19;;;;;;;;;5.00;5.00;;;;;22.34;50.50;99107.84;110256;1251;20468;-40
2023/08/07 01:38:45;;;;;;;;;4.00;4.00;;;;;22.33;50.63;99106.62;110252;1250;18345;-41
2023/08/07 01:41:11;;;;;;;;;4.00;4.00;;;;;22.37;50.57;99109.68;110240;1265;18678;-40
2023/08/07 01:43:37;;;;;;;;;4.00;4.00;;;;;22.35;50.53;99113.42;110269;1257;19270;-40
2023/08/07 01:46:04;;;;;;;;;4.00;4.00;;;;;22.36;50.78;99114.71;110324;1251;19389;-42
2023/08/07 01:48:30;;;;;;;;;4.00;4.00;;;;;22.36;50.51;99114.08;110296;1265;21098;-41
2023/08/07 01:50:56;;;;;;;;;4.00;4.00;;;;;22.34;50.55;99105.27;110142;1249;20506;-39
2023/08/07 01:53:22;;;;;;;;;4.00;4.00;;;;;22.34;50.54;99113.39;110212;1251;19338;-40
2023/08/07 01:55:48;;;;;;;;;2.00;2.00;;;;;22.34;50.61;99115.33;110245;1265;21104;-40
2023/08/07 01:58:14;;;;;;;;;4.00;4.00;;;;;22.33;50.56;99110.38;110238;1251;22814;-40
2023/08/07 02:00:40;;;;;;;;;2.00;2.00;;;;;22.34;50.59;99111.98;110303;1265;18316;-40
2023/08/07 02:03:06;;;;;;;;;4.00;4.00;;;;;22.34;50.49;99114.07;110303;1251;20093;-40
2023/08/07 02:05:33;;;;;;;;;3.00;3.00;;;;;22.33;50.56;99115.41;110275;1257;19565;-40
2023/08/07 02:07:58;;;;;;;;;2.00;2.00;;;;;22.32;50.57;99111.23;110281;1265;18487;-39
2023/08/07 02:10:25;;;;;;;;;2.00;2.00;;;;;22.29;50.72;99106.23;110267;1251;21469;-40
2023/08/07 02:12:51;;;;;;;;;2.00;2.00;;;;;22.29;50.55;99109.13;110247;1250;19428;-40
2023/08/07 02:15:17;;;;;;;;;2.00;2.00;;;;;22.28;50.31;99104.02;110258;1249;22501;-40
2023/08/07 02:17:42;;;;;;;;;4.00;3.00;;;;;22.26;50.73;99101.33;110254;1251;22816;-40
2023/08/07 02:20:08;;;;;;;;;2.00;2.00;;;;;22.24;50.75;99099.90;110296;1265;20294;-40
2023/08/07 02:22:34;;;;;;;;;2.00;2.00;;;;;22.23;50.84;99101.67;110278;1251;19375;-41
2023/08/07 02:25:00;;;;;;;;;2.00;2.00;;;;;22.25;50.67;99094.80;110286;1251;22860;-40
2023/08/07 02:27:26;;;;;;;;;2.00;2.00;;;;;22.25;50.75;99093.59;110281;1265;19291;-40
2023/08/07 02:29:52;;;;;;;;;2.00;2.00;;;;;22.26;50.69;99093.36;110297;1251;19405;-40
2023/08/07 02:32:18;;;;;;;;;4.00;4.00;;;;;22.25;50.86;99094.67;110263;1250;20146;-41
2023/08/07 02:34:44;;;;;;;;;2.00;2.00;;;;;22.24;50.80;99093.21;110282;1250;21798;-40
2023/08/07 02:37:10;;;;;;;;;2.00;2.00;;;;;22.24;51.01;99092.69;110276;1265;18338;-39
2023/08/07 02:39:36;;;;;;;;;2.00;2.00;;;;;22.25;51.06;99095.38;110274;1249;19724;-40
2023/08/07 02:42:03;;;;;;;;;2.00;2.00;;;;;22.25;50.82;99102.92;110271;1251;20564;-41
2023/08/07 02:44:29;;;;;;;;;2.00;2.00;;;;;22.24;50.87;99097.27;110311;1265;19024;-40
2023/08/07 02:46:54;;;;;;;;;2.00;2.00;;;;;22.25;50.88;99093.17;110341;1265;18297;-40
2023/08/07 02:49:20;;;;;;;;;2.00;2.00;;;;;22.26;50.90;99098.92;110256;1250;20662;-40
2023/08/07 02:51:46;;;;;;;;;2.00;2.00;;;;;22.25;51.06;99100.68;110181;1251;19377;-40
2023/08/07 02:54:12;;;;;;;;;2.00;2.00;;;;;22.25;50.73;99103.38;110257;1251;20237;-40
2023/08/07 02:56:38;;;;;;;;;2.00;2.00;;;;;22.22;50.92;99106.77;110351;1265;19231;-40
2023/08/07 02:59:05;;;;;;;;;2.00;2.00;;;;;22.23;50.84;99107.35;110252;1249;19208;-39
2023/08/07 03:01:31;;;;;;;;;2.00;2.00;;;;;22.23;50.81;99108.90;110251;1251;22216;-41
2023/08/07 03:03:57;;;;;;;;;2.00;2.00;;;;;22.22;51.02;99108.48;110267;1257;23120;-39
2023/08/07 03:06:23;;;;;;;;;5.00;4.00;;;;;22.22;50.87;99111.65;110249;1265;22985;-40
2023/08/07 03:08:49;;;;;;;;;2.00;2.00;;;;;22.23;50.96;99117.46;110252;1250;22200;-40
2023/08/07 03:11:14;;;;;;;;;2.00;2.00;;;;;22.21;50.76;99125.90;110277;1250;20496;-40
2023/08/07 03:13:41;;;;;;;;;2.00;2.00;;;;;22.20;50.79;99126.70;110277;1260;18191;-40
2023/08/07 03:16:08;;;;;;;;;4.00;2.00;;;;;22.20;50.63;99123.72;110227;1265;22186;-40
2023/08/07 03:18:34;;;;;;;;;2.00;2.00;;;;;22.21;50.70;99124.23;110261;1251;21989;-40
2023/08/07 03:21:00;;;;;;;;;2.00;2.00;;;;;22.19;50.66;99123.39;110291;1265;22226;-40
2023/08/07 03:23:26;;;;;;;;;2.00;2.00;;;;;22.20;50.51;99123.27;110279;1265;18372;-40
2023/08/07 03:25:52;;;;;;;;;2.00;2.00;;;;;22.20;50.58;99123.04;110276;1249;20522;-40
2023/08/07 03:28:18;;;;;;;;;4.00;4.00;;;;;22.21;50.71;99124.07;110272;1265;18162;-40
2023/08/07 03:30:44;;;;;;;;;3.33;3.33;;;;;22.22;50.53;99122.79;110302;1249;18738;-39
2023/08/07 03:33:10;;;;;;;;;4.00;4.00;;;;;22.20;50.46;99121.95;110266;1265;19272;-40
2023/08/07 03:35:36;;;;;;;;;2.00;2.00;;;;;22.16;50.43;99120.44;110278;1249;22486;-41
2023/08/07 03:38:02;;;;;;;;;2.00;2.00;;;;;22.16;50.74;99127.82;110288;1251;22322;-41
2023/08/07 03:40:28;;;;;;;;;4.00;4.00;;;;;22.15;50.64;99127.30;110264;1265;22782;-40
2023/08/07 03:42:54;;;;;;;;;2.00;2.00;;;;;22.16;50.40;99124.26;110250;1250;19369;-41
2023/08/07 03:45:20;;;;;;;;;2.00;2.00;;;;;22.16;50.55;99123.87;110249;1251;18394;-40
2023/08/07 03:47:46;;;;;;;;;4.00;4.00;;;;;22.17;50.32;99126.08;110272;1251;20520;-40
2023/08/07 03:50:12;;;;;;;;;2.00;2.00;;;;;22.16;50.60;99134.23;110254;1251;22063;-40
2023/08/07 03:52:38;;;;;;;;;4.00;4.00;;;;;22.16;50.56;99134.35;110262;1249;21030;-40
2023/08/07 03:55:04;;;;;;;;;4.00;3.00;;;;;22.14;50.45;99134.99;110280;1251;20934;-40
2023/08/07 03:57:30;;;;;;;;;2.00;2.00;;;;;22.16;50.27;99141.70;110265;1250;22674;-41
2023/08/07 03:59:56;;;;;;;;;2.00;2.00;;;;;22.15;50.59;99150.09;110279;1250;19709;-40
2023/08/07 04:02:22;;;;;;;;;2.00;2.00;;;;;22.17;50.27;99155.13;110260;1251;20791;-40
2023/08/07 04:04:48;;;;;;;;;4.50;4.00;;;;;22.15;50.31;99155.92;110295;1265;18895;-40
2023/08/07 04:07:14;;;;;;;;;4.00;4.00;;;;;22.14;50.17;99160.09;110285;1249;19911;-40
2023/08/07 04:09:40;;;;;;;;;5.00;5.00;;;;;22.13;50.21;99161.65;110279;1250;20507;-40
2023/08/07 04:12:06;;;;;;;;;5.00;5.00;;;;;22.12;50.27;99161.91;110270;1251;19363;-41
2023/08/07 04:14:32;;;;;;;;;5.00;5.00;;;;;22.10;50.25;99157.86;110249;1265;18706;-41
2023/08/07 04:17:00;;;;;;;;;6.00;5.00;;;;;22.11;50.30;99153.86;110275;1265;19110;-40
2023/08/07 04:19:26;;;;;;;;;5.00;5.00;;;;;22.13;50.47;99156.20;110288;1251;19692;-40
2023/08/07 04:21:52;;;;;;;;;4.00;4.00;;;;;22.10;50.13;99162.61;110273;1250;19979;-39
2023/08/07 04:24:18;;;;;;;;;4.00;4.00;;;;;22.10;50.31;99169.45;110277;1265;22002;-42
2023/08/07 04:26:44;;;;;;;;;4.00;4.00;;;;;22.10;50.25;99170.54;110274;1265;22622;-40
2023/08/07 04:29:10;;;;;;;;;3.00;3.00;;;;;22.09;50.22;99167.83;110255;1251;22450;-40
2023/08/07 04:31:36;;;;;;;;;5.00;5.00;;;;;22.06;50.09;99167.25;110259;1251;22803;-41
2023/08/07 04:34:02;;;;;;;;;2.00;2.00;;;;;22.08;50.14;99170.11;110263;1265;22684;-41
2023/08/07 04:36:28;;;;;;;;;2.00;2.00;;;;;22.07;49.99;99163.15;110262;1249;23584;-39
2023/08/07 04:38:55;;;;;;;;;2.00;2.00;;;;;22.04;50.01;99167.09;110291;1265;20547;-40
2023/08/07 04:41:21;;;;;;;;;2.67;2.00;;;;;22.04;50.10;99175.71;110272;1250;22545;-40
2023/08/07 04:43:48;;;;;;;;;2.00;2.00;;;;;22.05;49.84;99178.02;110258;1251;23164;-40
2023/08/07 04:46:14;;;;;;;;;2.00;2.00;;;;;22.04;49.97;99180.08;110267;1250;20601;-40
2023/08/07 04:48:40;;;;;;;;;2.67;2.00;;;;;22.04;50.02;99185.30;110215;1265;20659;-40
2023/08/07 04:51:06;;;;;;;;;4.00;4.00;;;;;22.05;49.89;99187.81;110341;1265;20834;-40
2023/08/07 04:53:32;;;;;;;;;4.00;4.00;;;;;22.04;49.94;99191.14;110297;1259;20669;-40
2023/08/07 04:55:58;;;;;;;;;2.00;2.00;;;;;22.04;49.88;99201.58;110283;1265;18197;-39
2023/08/07 04:58:24;;;;;;;;;4.00;4.00;;;;;22.04;49.84;99203.80;110261;1265;18383;-40
2023/08/07 05:00:50;;;;;;;;;5.00;5.00;;;;;22.04;49.80;99206.59;110250;1265;19811;-40
2023/08/07 05:03:18;;;;;;;;;12.00;8.00;;;;;22.04;49.97;99208.43;110271;1249;21713;-40
2023/08/07 05:05:44;;;;;;;;;7.00;6.00;;;;;22.03;49.80;99211.52;110240;1265;22611;-40
2023/08/07 05:08:10;;;;;;;;;7.00;7.00;;;;;22.06;49.86;99214.51;110274;1265;22615;-40
2023/08/07 05:10:36;;;;;;;;;8.50;8.00;;;;;22.05;49.93;99218.98;110277;1251;19318;-39
2023/08/07 05:13:02;;;;;;;;;6.00;5.00;;;;;22.04;49.89;99223.16;110276;1265;19636;-41
2023/08/07 05:15:30;;;;;;;;;8.00;6.00;;;;;22.05;50.00;99227.08;110262;1250;20948;-42
2023/08/07 05:17:56;;;;;;;;;5.00;5.00;;;;;22.04;50.22;99227.85;110262;1265;20016;-41
2023/08/07 05:20:22;;;;;;;;;5.00;5.00;;;;;22.05;50.12;99227.77;110277;1265;22803;-40
2023/08/07 05:22:48;;;;;;;;;5.00;5.00;;;;;22.04;50.18;99231.56;110293;1251;21700;-40
2023/08/07 05:25:15;;;;;;;;;4.00;4.00;;;;;22.05;49.99;99232.21;110272;1257;19413;-40
2023/08/07 05:27:41;;;;;;;;;5.50;4.50;;;;;22.05;50.06;99230.61;110310;1265;18675;-42
2023/08/07 05:30:07;;;;;;;;;2.00;2.00;;;;;22.04;50.17;99231.95;110292;1257;23225;-39
2023/08/07 05:32:33;;;;;;;;;5.00;5.00;;;;;22.04;50.17;99232.98;110256;1251;22860;-40
2023/08/07 05:34:59;;;;;;;;;4.00;4.00;;;;;22.02;50.57;99234.55;110275;1251;20150;-40
2023/08/07 05:37:26;;;;;;;;;5.00;4.00;;;;;22.02;50.55;99239.35;110284;1251;22909;-40
2023/08/07 05:39:52;;;;;;;;;5.00;5.00;;;;;22.01;50.53;99238.48;110253;1257;23127;-40
2023/08/07 05:42:18;;;;;;;;;4.00;4.00;;;;;22.01;50.38;99237.18;110286;1265;18399;-40
2023/08/07 05:44:44;;;;;;;;;4.00;4.00;;;;;21.99;50.50;99241.42;110262;1250;20650;-40
2023/08/07 05:47:10;;;;;;;;;6.00;6.00;;;;;22.01;50.48;99235.44;110292;1251;19367;-40
2023/08/07 05:49:36;;;;;;;;;5.00;5.00;;;;;22.01;50.45;99242.25;110266;1265;18537;-40
2023/08/07 05:52:02;;;;;;;;;5.00;5.00;;;;;22.01;50.51;99243.39;110288;1251;20538;-40
2023/08/07 05:54:28;;;;;;;;;5.00;5.00;;;;;22.00;50.39;99250.19;110279;1265;18188;-40
2023/08/07 05:56:54;;;;;;;;;5.00;5.00;;;;;21.99;50.66;99250.26;110285;1251;19811;-40
2023/08/07 05:59:20;;;;;;;;;8.00;5.00;;;;;21.98;50.62;99252.13;110324;1251;22714;-40
2023/08/07 06:01:46;;;;;;;;;5.00;4.00;;;;;21.95;50.77;99250.35;110281;1251;22302;-40
2023/08/07 06:04:11;;;;;;;;;5.00;4.00;;;;;21.94;50.65;99248.21;110284;1251;19790;-40
2023/08/07 06:06:39;;;;;;;;;4.50;4.50;;;;;21.91;50.56;99247.04;110339;1251;20798;-39
2023/08/07 06:09:06;;;;;;;;;4.00;4.00;;;;;21.91;50.74;99246.43;110320;1265;18459;-40
2023/08/07 06:11:32;;;;;;;;;4.00;4.00;;;;;21.92;50.76;99249.95;110274;1257;20224;-39
2023/08/07 06:13:58;;;;;;;;;5.00;5.00;;;;;21.92;50.62;99250.73;110332;1251;22354;-39
2023/08/07 06:16:24;;;;;;;;;4.00;4.00;;;;;21.91;50.81;99252.11;110298;1250;18493;-39
2023/08/07 06:18:50;;;;;;;;;4.00;4.00;;;;;21.92;50.58;99254.80;110273;1250;19823;-40
2023/08/07 06:21:16;;;;;;;;;4.00;4.00;;;;;21.94;50.68;99257.05;110266;1250;20554;-39
2023/08/07 06:23:42;;;;;;;;;3.00;3.00;;;;;21.90;50.69;99258.61;110362;1265;22419;-40
2023/08/07 06:26:08;;;;;;;;;4.00;4.00;;;;;21.90;50.80;99261.30;110324;1251;21574;-40
2023/08/07 06:28:35;;;;;;;;;5.00;5.00;;;;;21.90;50.80;99264.67;110353;1251;20788;-41
2023/08/07 06:31:01;;;;;;;;;4.00;4.00;;;;;21.91;50.72;99269.78;110345;1265;22344;-38
2023/08/07 06:33:27;;;;;;;;;4.50;4.50;;;;;21.92;50.90;99271.84;110305;1249;19959;-40
2023/08/07 06:35:53;;;;;;;;;6.00;6.00;;;;;21.89;51.05;99269.67;110272;1249;19134;-40
2023/08/07 06:38:18;;;;;;;;;5.00;4.00;;;;;21.89;51.14;99266.73;110284;1265;18159;-40
2023/08/07 06:40:45;;;;;;;;;5.00;5.00;;;;;21.89;51.29;99271.30;110298;1251;19856;-40
2023/08/07 06:43:11;;;;;;;;;5.00;5.00;;;;;21.88;51.22;99268.55;110296;1250;20856;-41
2023/08/07 06:45:37;;;;;;;;;4.00;4.00;;;;;21.90;50.91;99272.59;110220;1251;19563;-39
2023/08/07 06:48:03;;;;;;;;;4.00;4.00;;;;;21.90;51.18;99269.93;110254;1249;22693;-39
2023/08/07 06:50:29;;;;;;;;;4.50;4.00;;;;;21.84;51.11;99272.63;110364;1250;20694;-39
2023/08/07 06:52:55;;;;;;;;;6.00;5.00;;;;;21.87;51.19;99275.89;110339;1265;23140;-40
2023/08/07 06:55:21;;;;;;;;;5.00;5.00;;;;;21.87;50.95;99277.61;110264;1251;22860;-41
2023/08/07 06:57:47;;;;;;;;;5.00;4.00;;;;;21.87;51.16;99282.42;110272;1265;20700;-41
2023/08/07 07:00:13;;;;;;;;;5.00;5.00;;;;;21.87;50.93;99279.77;110274;1265;18513;-40
2023/08/07 07:02:39;;;;;;;;;5.00;5.00;;;;;21.86;51.14;99284.48;110265;1265;22946;-40
2023/08/07 07:05:05;;;;;;;;;5.00;4.00;;;;;21.89;50.97;99290.55;110284;1265;19461;-41
2023/08/07 07:07:31;;;;;;;;;5.00;5.00;;;;;21.89;51.07;99289.14;110286;1265;18191;-41
2023/08/07 07:09:57;;;;;;;;;5.50;5.50;;;;;21.87;51.05;99296.22;110232;1251;22466;-40
2023/08/07 07:12:23;;;;;;;;;5.00;5.00;;;;;21.89;51.28;99293.02;110277;1251;20767;-41
2023/08/07 07:14:49;;;;;;;;;6.00;5.00;;;;;21.93;51.13;99298.48;110199;1257;18235;-41
2023/08/07 07:17:15;;;;;;;;;4.00;4.00;;;;;21.93;51.20;99297.53;110274;1265;18368;-40
2023/08/07 07:19:41;;;;;;;;;5.00;5.00;;;;;21.93;51.28;99295.02;110292;1251;23032;-40
2023/08/07 07:22:08;;;;;;;;;5.50;5.00;;;;;21.89;51.21;99294.85;110269;1251;18463;-40
2023/08/07 07:24:33;;;;;;;;;4.00;4.00;;;;;21.85;51.35;99298.92;110272;1251;19804;-40
2023/08/07 07:26:59;;;;;;;;;5.00;4.00;;;;;21.85;51.35;99300.09;110286;1251;21055;-40
2023/08/07 07:29:25;;;;;;;;;4.00;4.00;;;;;21.88;51.47;99305.41;110263;1250;19605;-40
2023/08/07 07:31:51;;;;;;;;;6.00;5.00;;;;;21.90;51.05;99310.31;109927;1265;480695;-40
2023/08/07 07:34:17;;;;;;;;;8.50;8.00;;;;;21.87;51.32;99311.32;110282;1251;20694;-40
2023/08/07 07:36:43;;;;;;;;;6.00;5.50;;;;;21.84;50.85;99308.77;110267;1251;19507;-39
2023/08/07 07:39:10;;;;;;;;;4.00;4.00;;;;;21.82;50.97;99313.85;110271;1250;19862;-40
2023/08/07 07:41:36;;;;;;;;;6.00;5.00;;;;;21.87;50.64;99313.56;110253;1265;22045;-40
2023/08/07 07:44:02;;;;;;;;;4.00;4.00;;;;;21.88;50.73;99317.13;110292;1265;18364;-40
2023/08/07 07:46:28;;;;;;;;;5.00;5.00;;;;;21.90;50.48;99321.86;110296;1265;20084;-40
2023/08/07 07:48:55;;;;;;;;;5.00;5.00;;;;;21.90;50.61;99326.18;110290;1251;20483;-39
2023/08/07 07:51:21;;;;;;;;;4.00;4.00;;;;;21.93;50.57;99323.55;110243;1265;18625;-39
2023/08/07 07:53:47;;;;;;;;;5.00;4.00;;;;;21.98;50.27;99331.36;110291;1265;19952;-41
2023/08/07 07:56:13;;;;;;;;;5.00;5.00;;;;;21.98;50.37;99324.44;110268;1265;19061;-41
2023/08/07 07:58:40;;;;;;;;;6.00;5.00;;;;;21.96;50.27;99321.38;110269;1265;19189;-40
2023/08/07 08:01:06;;;;;;;;;4.00;4.00;;;;;21.99;50.25;99324.64;110263;1265;18946;-39
2023/08/07 08:03:32;;;;;;;;;5.00;5.00;;;;;21.96;50.21;99322.38;110305;1257;20494;-39
2023/08/07 08:05:58;;;;;;;;;4.00;4.00;;;;;21.94;50.16;99325.15;110258;1265;18543;-40
2023/08/07 08:08:24;;;;;;;;;4.00;4.00;;;;;21.92;50.19;99331.97;110272;1265;22056;-40
2023/08/07 08:10:51;;;;;;;;;6.00;6.00;;;;;21.94;49.93;99346.45;110253;1265;22773;-40
2023/08/07 08:13:17;;;;;;;;;5.00;5.00;;;;;21.93;49.84;99351.19;110287;1265;19533;-39
2023/08/07 08:15:43;;;;;;;;;5.00;4.00;;;;;21.95;49.86;99356.75;110267;1265;22347;-40
2023/08/07 08:18:09;;;;;;;;;4.00;4.00;;;;;21.93;49.78;99357.28;110292;1265;20363;-40
2023/08/07 08:20:35;;;;;;;;;5.00;5.00;;;;;21.89;50.04;99354.41;110300;1249;20804;-40
2023/08/07 08:23:01;;;;;;;;;5.00;5.00;;;;;21.90;49.70;99356.59;110307;1257;18707;-40
2023/08/07 08:25:27;;;;;;;;;5.00;5.00;;;;;21.91;49.81;99356.40;110276;1265;18965;-40
2023/08/07 08:27:53;;;;;;;;;5.50;5.50;;;;;21.94;49.58;99366.10;110291;1265;19760;-41
2023/08/07 08:30:19;;;;;;;;;5.00;5.00;;;;;21.96;49.46;99368.02;110276;1265;19951;-40
2023/08/07 08:32:45;;;;;;;;;5.00;5.00;;;;;21.96;49.36;99372.22;110299;1251;20636;-40
2023/08/07 08:35:11;;;;;;;;;4.00;4.00;;;;;21.94;49.27;99372.11;110261;1265;20816;-39
2023/08/07 08:37:37;;;;;;;;;4.50;4.00;;;;;21.95;49.13;99375.52;110297;1265;18824;-39
2023/08/07 08:40:03;;;;;;;;;5.00;4.00;;;;;21.95;49.08;99374.69;110292;1265;19248;-40
2023/08/07 08:42:29;;;;;;;;;5.00;4.00;;;;;21.96;49.09;99375.05;110281;1249;18208;-40
2023/08/07 08:44:55;;;;;;;;;4.00;4.00;;;;;21.96;49.00;99378.60;110347;1265;18445;-41
2023/08/07 08:47:21;;;;;;;;;5.00;5.00;;;;;21.96;48.75;99384.63;110242;1257;20488;-39
2023/08/07 08:49:47;;;;;;;;;4.00;4.00;;;;;21.99;48.52;99385.81;110289;1265;18070;-39
2023/08/07 08:52:13;;;;;;;;;5.00;4.00;;;;;22.01;48.54;99385.95;110352;1265;19613;-39
2023/08/07 08:54:39;;;;;;;;;4.00;4.00;;;;;22.03;48.41;99387.55;110366;1251;20572;-39
2023/08/07 08:57:05;;;;;;;;;5.00;5.00;;;;;22.06;48.27;99387.77;110341;1251;19374;-39
2023/08/07 08:59:31;;;;;;;;;6.00;5.00;;;;;22.07;47.86;99386.09;110381;1250;19947;-40
2023/08/07 09:01:57;;;;;;;;;3.33;3.33;;;;;22.10;47.97;99389.63;110339;1265;21935;-40
2023/08/07 09:04:23;;;;;;;;;4.00;4.00;;;;;22.06;48.15;99392.46;110310;1251;19732;-40
2023/08/07 09:06:49;;;;;;;;;4.00;4.00;;;;;22.06;47.85;99396.98;110253;1266;22863;-40
2023/08/07 09:09:15;;;;;;;;;4.00;4.00;;;;;22.05;47.77;99404.95;110271;1251;20503;-40
2023/08/07 09:11:41;;;;;;;;;4.00;4.00;;;;;22.06;47.34;99402.98;110268;1265;19644;-40
2023/08/07 09:14:09;;;;;;;;;4.00;4.00;;;;;22.02;46.97;99402.63;110292;1250;21588;-39
2023/08/07 09:16:35;;;;;;;;;4.33;4.00;;;;;21.94;46.56;99400.23;110275;1265;19749;-40
2023/08/07 09:19:02;;;;;;;;;4.00;4.00;;;;;21.96;46.24;99395.83;110266;1257;19518;-40
2023/08/07 09:21:28;;;;;;;;;5.00;5.00;;;;;21.96;46.20;99397.17;110238;1265;20039;-40
2023/08/07 09:23:54;;;;;;;;;6.00;5.00;;;;;21.97;46.06;99394.74;110169;1265;20726;-40
2023/08/07 09:26:20;;;;;;;;;4.00;2.00;;;;;22.01;45.63;99391.61;110280;1265;20949;-40
2023/08/07 09:28:46;;;;;;;;;4.00;4.00;;;;;22.06;45.64;99389.98;110331;1265;18630;-39
2023/08/07 09:31:12;;;;;;;;;5.00;5.00;;;;;22.04;45.64;99386.60;110322;1265;19549;-39
2023/08/07 09:33:38;;;;;;;;;5.00;4.00;;;;;22.09;45.77;99388.59;110344;1265;19415;-44
2023/08/07 09:36:04;;;;;;;;;4.00;3.00;;;;;22.11;45.56;99389.38;110309;1265;22624;-40
2023/08/07 09:38:31;;;;;;;;;4.00;4.00;;;;;22.11;45.83;99385.55;110268;1265;20589;-40
2023/08/07 09:40:57;;;;;;;;;5.00;5.00;;;;;22.11;45.66;99385.11;110291;1265;19660;-40
2023/08/07 09:43:23;;;;;;;;;4.00;4.00;;;;;22.13;45.94;99383.26;110265;1265;18647;-39
2023/08/07 09:45:50;;;;;;;;;4.00;4.00;;;;;22.12;45.75;99378.66;110260;1265;21124;-40
2023/08/07 09:48:17;;;;;;;;;4.00;4.00;;;;;22.15;45.55;99379.45;110295;1266;18537;-39
2023/08/07 09:50:44;;;;;;;;;4.00;4.00;;;;;22.14;45.15;99380.28;110271;1265;19337;-40
2023/08/07 09:53:11;;;;;;;;;4.00;4.00;;;;;22.13;45.29;99374.05;110117;1251;20616;-40
2023/08/07 09:55:37;;;;;;;;;4.00;4.00;;;;;22.14;45.08;99362.50;110260;1260;22742;-40
2023/08/07 09:58:03;;;;;;;;;4.00;4.00;;;;;22.16;45.21;99355.96;110290;1265;20140;-40
2023/08/07 10:00:33;;;;;;;;;2.00;2.00;;;;;22.14;44.84;99349.54;110278;1265;20777;-40
2023/08/07 10:03:01;;;;;;;;;4.00;4.00;;;;;22.16;44.72;99353.45;110284;1265;19232;-40
2023/08/07 10:05:27;;;;;;;;;4.00;4.00;;;;;22.14;45.02;99360.32;110272;1265;18943;-38
2023/08/07 10:07:54;;;;;;;;;4.00;3.00;;;;;22.16;45.12;99367.14;110284;1265;20402;-40
2023/08/07 10:10:20;;;;;;;;;5.00;4.00;;;;;22.18;45.12;99370.04;110256;1265;18544;-39
2023/08/07 10:12:47;;;;;;;;;4.00;4.00;;;;;22.21;45.04;99370.50;110252;1265;20201;-40
2023/08/07 10:15:14;;;;;;;;;4.00;2.00;;;;;22.22;45.33;99376.44;110248;1265;22323;-40
2023/08/07 10:17:40;;;;;;;;;4.00;4.00;;;;;22.21;45.60;99387.25;110257;1265;22370;-40
2023/08/07 10:20:07;;;;;;;;;5.50;5.00;;;;;22.25;45.48;99392.11;110271;1265;22891;-41
2023/08/07 10:22:34;;;;;;;;;4.00;4.00;;;;;22.24;45.78;99397.05;110317;1265;19364;-39
2023/08/07 10:25:00;;;;;;;;;4.00;4.00;;;;;22.23;45.68;99403.88;110283;1265;22893;-40
2023/08/07 10:27:26;;;;;;;;;5.00;5.00;;;;;22.22;45.66;99409.52;110323;1265;19550;-40
2023/08/07 10:29:52;;;;;;;;;5.00;5.00;;;;;22.21;45.58;99427.45;110357;1250;21009;-40
2023/08/07 10:32:19;;;;;;;;;4.00;4.00;;;;;22.18;45.63;99431.96;110248;1265;19783;-40
2023/08/07 10:34:45;;;;;;;;;5.00;4.00;;;;;22.19;45.83;99432.52;110286;1265;21274;-40
2023/08/07 10:37:11;;;;;;;;;4.00;2.00;;;;;22.17;45.53;99439.17;110253;1265;20662;-39
2023/08/07 10:39:38;;;;;;;;;4.00;4.00;;;;;22.17;45.88;99442.98;110323;1265;18577;-38
2023/08/07 10:42:04;;;;;;;;;5.00;5.00;;;;;22.17;45.68;99447.73;110295;1265;18763;-38
2023/08/07 10:44:31;;;;;;;;;4.00;4.00;;;;;22.18;45.77;99450.66;110310;1265;19692;-38
2023/08/07 10:46:57;;;;;;;;;4.00;4.00;;;;;22.16;45.54;99453.60;110220;1265;18605;-38
2023/08/07 10:49:23;;;;;;;;;5.50;5.00;;;;;22.15;45.70;99454.98;110275;1265;19960;-39
2023/08/07 10:51:51;;;;;;;;;5.00;5.00;;;;;22.17;45.83;99466.18;110244;1265;19300;-39
2023/08/07 10:54:17;;;;;;;;;5.00;5.00;;;;;22.15;45.88;99475.23;110294;1265;19612;-40
2023/08/07 10:56:44;;;;;;;;;5.50;5.00;;;;;22.15;46.05;99481.61;110320;1265;18700;-39
2023/08/07 10:59:10;;;;;;;;;5.50;5.00;;;;;22.15;46.17;99482.70;110265;1265;23100;-39
2023/08/07 11:01:38;;;;;;;;;5.00;5.00;;;;;22.14;46.56;99487.19;110291;1265;22857;-39
2023/08/07 11:04:05;;;;;;;;;6.00;5.00;;;;;22.15;46.86;99485.11;110304;1257;18690;-39
2023/08/07 11:06:31;;;;;;;;;5.00;5.00;;;;;22.14;46.81;99491.23;110320;1265;20677;-39
2023/08/07 11:08:57;;;;;;;;;8.00;6.00;;;;;22.14;47.11;99489.27;110299;1265;19811;-39
2023/08/07 11:11:24;;;;;;;;;6.00;6.00;;;;;22.16;47.03;99488.77;110124;1266;19170;-40
2023/08/07 11:13:50;;;;;;;;;5.67;5.00;;;;;22.22;46.82;99485.86;110260;1265;20923;-41
2023/08/07 11:16:17;;;;;;;;;5.00;5.00;;;;;22.20;47.12;99482.58;110266;1265;19831;-40
2023/08/07 11:18:43;;;;;;;;;6.00;5.00;;;;;22.21;47.01;99484.45;110283;1265;19547;-40